Time,TemperatureF,DewpointF,PressureIn,WindDirection,WindDirectionDegrees,WindSpeedMPH,WindSpeedGustMPH,Humidity,HourlyPrecipIn,Conditions,Clouds,dailyrainin,SoftwareType,DateUTC
2013-05-13 06:00:00,49.0,45.0,-100.00,SE,126,1.0,-999.0,85,0.00,,,-99.99,,2013-05-13 13:00:00,
2013-05-13 06:21:00,49.0,45.0,-100.00,SE,126,1.0,-999.0,85,0.00,,,-99.99,,2013-05-13 13:21:00,
2013-05-13 06:32:00,49.0,45.0,-100.00,SE,126,1.0,-999.0,85,0.00,,,-99.99,,2013-05-13 13:32:00,
2013-05-13 06:42:00,49.0,45.0,-100.00,SE,126,1.0,-999.0,85,0.00,,,-99.99,,2013-05-13 13:42:00,
2013-05-13 06:52:00,49.0,45.0,-100.00,SE,126,1.0,-999.0,85,0.00,,,-99.99,,2013-05-13 13:52:00,
2013-05-13 07:00:00,48.0,44.0,-100.00,South,180,1.0,-999.0,86,0.00,,,-99.99,,2013-05-13 14:00:00,
2013-05-13 07:22:00,48.0,44.0,-100.00,South,180,1.0,-999.0,86,0.00,,,-99.99,,2013-05-13 14:22:00,
2013-05-13 07:32:00,48.0,44.0,-100.00,South,180,1.0,-999.0,86,0.00,,,-99.99,,2013-05-13 14:32:00,
2013-05-13 07:42:00,48.0,44.0,-100.00,South,180,1.0,-999.0,86,0.00,,,-99.99,,2013-05-13 14:42:00,
2013-05-13 07:52:00,48.0,44.0,-100.00,South,180,1.0,-999.0,86,0.00,,,-99.99,,2013-05-13 14:52:00,
2013-05-13 08:00:00,50.0,45.0,-100.00,SSE,159,1.0,-999.0,82,0.00,,,-99.99,,2013-05-13 15:00:00,
2013-05-13 08:22:00,50.0,45.0,-100.00,SSE,159,1.0,-999.0,82,0.00,,,-99.99,,2013-05-13 15:22:00,
2013-05-13 08:32:00,50.0,45.0,-100.00,SSE,159,1.0,-999.0,82,0.00,,,-99.99,,2013-05-13 15:32:00,
2013-05-13 08:42:00,50.0,45.0,-100.00,SSE,159,1.0,-999.0,82,0.00,,,-99.99,,2013-05-13 15:42:00,
2013-05-13 08:53:00,50.0,45.0,-100.00,SSE,159,1.0,-999.0,82,0.00,,,-99.99,,2013-05-13 15:53:00,
2013-05-13 09:00:00,57.0,46.0,-100.00,South,178,1.0,-999.0,67,0.00,,,-99.99,,2013-05-13 16:00:00,
2013-05-13 09:22:00,57.0,46.0,-100.00,South,178,1.0,-999.0,67,0.00,,,-99.99,,2013-05-13 16:22:00,
2013-05-13 09:33:00,57.0,46.0,-100.00,South,178,1.0,-999.0,67,0.00,,,-99.99,,2013-05-13 16:33:00,
2013-05-13 09:43:00,57.0,46.0,-100.00,South,178,1.0,-999.0,67,0.00,,,-99.99,,2013-05-13 16:43:00,
2013-05-13 09:52:00,57.0,46.0,-100.00,South,178,1.0,-999.0,67,0.00,,,-99.99,,2013-05-13 16:52:00,
2013-05-13 10:00:00,67.0,49.0,-100.00,SSE,147,1.0,-999.0,52,0.00,,,-99.99,,2013-05-13 17:00:00,
2013-05-13 10:22:00,67.0,49.0,-100.00,SSE,147,1.0,-999.0,52,0.00,,,-99.99,,2013-05-13 17:22:00,
2013-05-13 10:32:00,67.0,49.0,-100.00,SSE,147,1.0,-999.0,52,0.00,,,-99.99,,2013-05-13 17:32:00,
2013-05-13 10:54:00,67.0,49.0,-100.00,SSE,147,1.0,-999.0,52,0.00,,,-99.99,,2013-05-13 17:54:00,
2013-05-13 11:00:00,72.0,52.0,-100.00,NNW,334,1.0,-999.0,48,0.00,,,-99.99,,2013-05-13 18:00:00,
2013-05-13 11:23:00,72.0,52.0,-100.00,NNW,334,1.0,-999.0,48,0.00,,,-99.99,,2013-05-13 18:23:00,
2013-05-13 11:32:00,72.0,52.0,-100.00,NNW,334,1.0,-999.0,48,0.00,,,-99.99,,2013-05-13 18:32:00,
2013-05-13 11:52:00,72.0,52.0,-100.00,NNW,334,1.0,-999.0,48,0.00,,,-99.99,,2013-05-13 18:52:00,
2013-05-13 12:00:00,75.0,52.0,-100.00,North,350,2.0,-999.0,44,0.00,,,-99.99,,2013-05-13 19:00:00,
2013-05-13 12:22:00,75.0,52.0,-100.00,North,350,2.0,-999.0,44,0.00,,,-99.99,,2013-05-13 19:22:00,
2013-05-13 12:32:00,75.0,52.0,-100.00,North,350,2.0,-999.0,44,0.00,,,-99.99,,2013-05-13 19:32:00,
2013-05-13 12:44:00,75.0,52.0,-100.00,North,350,2.0,-999.0,44,0.00,,,-99.99,,2013-05-13 19:44:00,
2013-05-13 12:53:00,75.0,52.0,-100.00,North,350,2.0,-999.0,44,0.00,,,-99.99,,2013-05-13 19:53:00,
2013-05-13 13:00:00,77.0,51.0,-100.00,NW,320,3.0,-999.0,40,0.00,,,-99.99,,2013-05-13 20:00:00,
2013-05-13 13:23:00,77.0,51.0,-100.00,NW,320,3.0,-999.0,40,0.00,,,-99.99,,2013-05-13 20:23:00,
2013-05-13 13:34:00,77.0,51.0,-100.00,NW,320,3.0,-999.0,40,0.00,,,-99.99,,2013-05-13 20:34:00,
2013-05-13 13:53:00,77.0,51.0,-100.00,NW,320,3.0,-999.0,40,0.00,,,-99.99,,2013-05-13 20:53:00,
2013-05-13 14:23:00,79.0,51.0,-100.00,NNW,335,2.0,-999.0,38,0.00,,,-99.99,,2013-05-13 21:23:00,
2013-05-13 14:33:00,79.0,51.0,-100.00,NNW,335,2.0,-999.0,38,0.00,,,-99.99,,2013-05-13 21:33:00,
2013-05-13 15:23:00,81.0,50.0,-100.00,NNW,327,6.0,-999.0,34,0.00,,,-99.99,,2013-05-13 22:23:00,
2013-05-13 15:32:00,81.0,50.0,-100.00,NNW,327,6.0,-999.0,34,0.00,,,-99.99,,2013-05-13 22:32:00,
2013-05-13 16:23:00,81.0,47.0,-100.00,NNW,335,10.0,-999.0,30,0.00,,,-99.99,,2013-05-13 23:23:00,
2013-05-13 16:34:00,81.0,47.0,-100.00,NNW,335,10.0,-999.0,30,0.00,,,-99.99,,2013-05-13 23:34:00,
2013-05-13 17:22:00,81.0,46.0,-100.00,NW,324,5.0,-999.0,29,0.00,,,-99.99,,2013-05-14 00:22:00,
2013-05-13 17:32:00,81.0,46.0,-100.00,NW,324,5.0,-999.0,29,0.00,,,-99.99,,2013-05-14 00:32:00,
2013-05-13 18:21:00,77.0,43.0,-100.00,NNW,346,7.0,-999.0,29,0.00,,,-99.99,,2013-05-14 01:21:00,
2013-05-13 18:32:00,77.0,43.0,-100.00,NNW,346,7.0,-999.0,29,0.00,,,-99.99,,2013-05-14 01:32:00,
2013-05-13 19:22:00,72.0,44.0,-100.00,NNW,328,5.0,-999.0,37,0.00,,,-99.99,,2013-05-14 02:22:00,
2013-05-13 19:32:00,72.0,44.0,-100.00,NNW,328,5.0,-999.0,37,0.00,,,-99.99,,2013-05-14 02:32:00,
2013-05-13 19:42:00,72.0,44.0,-100.00,NNW,328,5.0,-999.0,37,0.00,,,-99.99,,2013-05-14 02:42:00,
2013-05-13 19:52:00,72.0,44.0,-100.00,NNW,328,5.0,-999.0,37,0.00,,,-99.99,,2013-05-14 02:52:00,
2013-05-13 20:21:00,69.0,44.0,-100.00,NNW,338,1.0,-999.0,41,0.00,,,-99.99,,2013-05-14 03:21:00,
2013-05-13 20:33:00,69.0,44.0,-100.00,NNW,338,1.0,-999.0,41,0.00,,,-99.99,,2013-05-14 03:33:00,
2013-05-13 21:23:00,66.0,42.0,-100.00,East,89,1.0,-999.0,41,0.00,,,-99.99,,2013-05-14 04:23:00,
2013-05-13 21:32:00,66.0,42.0,-100.00,East,89,1.0,-999.0,41,0.00,,,-99.99,,2013-05-14 04:32:00,
2013-05-13 21:43:00,66.0,42.0,-100.00,East,89,1.0,-999.0,41,0.00,,,-99.99,,2013-05-14 04:43:00,
2013-05-13 21:53:00,66.0,42.0,-100.00,East,89,1.0,-999.0,41,0.00,,,-99.99,,2013-05-14 04:53:00,
2013-05-13 22:22:00,63.0,42.0,-100.00,SSW,205,1.0,-999.0,46,0.00,,,-99.99,,2013-05-14 05:22:00,
2013-05-13 22:32:00,63.0,42.0,-100.00,SSW,205,1.0,-999.0,46,0.00,,,-99.99,,2013-05-14 05:32:00,
2013-05-13 23:00:00,62.0,44.0,-100.00,SE,130,3.0,-999.0,52,0.00,,,-99.99,,2013-05-14 06:00:00,
2013-05-13 23:22:00,62.0,44.0,-100.00,SE,130,3.0,-999.0,52,0.00,,,-99.99,,2013-05-14 06:22:00,
2013-05-13 23:32:00,62.0,44.0,-100.00,SE,130,3.0,-999.0,52,0.00,,,-99.99,,2013-05-14 06:32:00,
2013-05-13 23:42:00,62.0,44.0,-100.00,SE,130,3.0,-999.0,52,0.00,,,-99.99,,2013-05-14 06:42:00,
2013-05-13 23:52:00,62.0,44.0,-100.00,SE,130,3.0,-999.0,52,0.00,,,-99.99,,2013-05-14 06:52:00,